sensor_id;sensor_type;location;lat;lon;timestamp;temperature;humidity
8633;DHT22;4354;49.832;10.746;2023-08-12T00:02:00;15.90;99.90
8633;DHT22;4354;49.832;10.746;2023-08-12T00:04:27;16.00;99.90
8633;DHT22;4354;49.832;10.746;2023-08-12T00:06:53;15.90;99.90
8633;DHT22;4354;49.832;10.746;2023-08-12T00:09:20;15.90;99.90
8633;DHT22;4354;49.832;10.746;2023-08-12T00:11:47;15.90;99.90
8633;DHT22;4354;49.832;10.746;2023-08-12T00:14:14;15.90;99.90
8633;DHT22;4354;49.832;10.746;2023-08-12T00:16:41;15.80;99.90
8633;DHT22;4354;49.832;10.746;2023-08-12T00:19:07;15.80;99.90
8633;DHT22;4354;49.832;10.746;2023-08-12T00:21:35;15.70;99.90
8633;DHT22;4354;49.832;10.746;2023-08-12T00:24:02;15.70;99.90
8633;DHT22;4354;49.832;10.746;2023-08-12T00:26:29;15.60;99.90
8633;DHT22;4354;49.832;10.746;2023-08-12T00:28:55;15.60;99.90
8633;DHT22;4354;49.832;10.746;2023-08-12T00:31:22;15.60;99.90
8633;DHT22;4354;49.832;10.746;2023-08-12T00:33:49;15.60;99.90
8633;DHT22;4354;49.832;10.746;2023-08-12T00:36:16;15.70;99.90
8633;DHT22;4354;49.832;10.746;2023-08-12T00:38:43;15.60;99.90
8633;DHT22;4354;49.832;10.746;2023-08-12T00:41:09;15.70;99.90
8633;DHT22;4354;49.832;10.746;2023-08-12T00:43:36;15.70;99.90
8633;DHT22;4354;49.832;10.746;2023-08-12T00:46:03;15.60;99.90
8633;DHT22;4354;49.832;10.746;2023-08-12T00:48:31;15.60;99.90
8633;DHT22;4354;49.832;10.746;2023-08-12T00:50:58;15.60;99.90
8633;DHT22;4354;49.832;10.746;2023-08-12T00:53:25;15.60;99.90
8633;DHT22;4354;49.832;10.746;2023-08-12T00:55:52;15.50;99.90
8633;DHT22;4354;49.832;10.746;2023-08-12T00:58:19;15.50;99.90
8633;DHT22;4354;49.832;10.746;2023-08-12T01:00:46;15.50;99.90
8633;DHT22;4354;49.832;10.746;2023-08-12T01:03:12;15.40;99.90
8633;DHT22;4354;49.832;10.746;2023-08-12T01:05:40;15.40;99.90
8633;DHT22;4354;49.832;10.746;2023-08-12T01:08:07;15.40;99.90
8633;DHT22;4354;49.832;10.746;2023-08-12T01:10:36;15.30;99.90
8633;DHT22;4354;49.832;10.746;2023-08-12T01:13:16;15.40;99.90
8633;DHT22;4354;49.832;10.746;2023-08-12T01:15:46;15.40;99.90
8633;DHT22;4354;49.832;10.746;2023-08-12T01:18:15;15.30;99.90
8633;DHT22;4354;49.832;10.746;2023-08-12T01:20:42;15.30;99.90
8633;DHT22;4354;49.832;10.746;2023-08-12T01:23:32;15.30;99.90
8633;DHT22;4354;49.832;10.746;2023-08-12T01:25:59;15.20;99.90
8633;DHT22;4354;49.832;10.746;2023-08-12T01:28:26;15.20;99.90
8633;DHT22;4354;49.832;10.746;2023-08-12T01:31:10;15.20;99.90
8633;DHT22;4354;49.832;10.746;2023-08-12T01:34:16;15.20;99.90
8633;DHT22;4354;49.832;10.746;2023-08-12T01:36:51;15.20;99.90
8633;DHT22;4354;49.832;10.746;2023-08-12T01:39:21;15.20;99.90
8633;DHT22;4354;49.832;10.746;2023-08-12T01:41:48;15.20;99.90
8633;DHT22;4354;49.832;10.746;2023-08-12T01:44:15;15.10;99.90
8633;DHT22;4354;49.832;10.746;2023-08-12T01:46:44;15.10;99.90
8633;DHT22;4354;49.832;10.746;2023-08-12T01:49:10;15.20;99.90
8633;DHT22;4354;49.832;10.746;2023-08-12T01:51:37;15.20;99.90
8633;DHT22;4354;49.832;10.746;2023-08-12T01:54:04;15.10;99.90
8633;DHT22;4354;49.832;10.746;2023-08-12T01:56:31;15.10;99.90
8633;DHT22;4354;49.832;10.746;2023-08-12T01:58:58;15.10;99.90
8633;DHT22;4354;49.832;10.746;2023-08-12T02:01:24;15.00;99.90
8633;DHT22;4354;49.832;10.746;2023-08-12T02:03:51;15.00;99.90
8633;DHT22;4354;49.832;10.746;2023-08-12T02:06:18;15.00;99.90
8633;DHT22;4354;49.832;10.746;2023-08-12T02:08:46;15.00;99.90
8633;DHT22;4354;49.832;10.746;2023-08-12T02:11:12;15.00;99.90
8633;DHT22;4354;49.832;10.746;2023-08-12T02:13:39;15.00;99.90
8633;DHT22;4354;49.832;10.746;2023-08-12T02:16:06;14.90;99.90
8633;DHT22;4354;49.832;10.746;2023-08-12T02:18:33;14.90;99.90
8633;DHT22;4354;49.832;10.746;2023-08-12T02:20:59;14.80;99.90
8633;DHT22;4354;49.832;10.746;2023-08-12T02:23:26;14.80;99.90
8633;DHT22;4354;49.832;10.746;2023-08-12T02:25:53;14.80;99.90
8633;DHT22;4354;49.832;10.746;2023-08-12T02:28:22;14.90;99.90
8633;DHT22;4354;49.832;10.746;2023-08-12T02:30:49;14.90;99.90
8633;DHT22;4354;49.832;10.746;2023-08-12T02:33:16;15.00;99.90
8633;DHT22;4354;49.832;10.746;2023-08-12T02:35:43;15.00;99.90
8633;DHT22;4354;49.832;10.746;2023-08-12T02:38:09;14.90;99.90
8633;DHT22;4354;49.832;10.746;2023-08-12T02:40:36;14.80;99.90
8633;DHT22;4354;49.832;10.746;2023-08-12T02:43:03;14.80;99.90
8633;DHT22;4354;49.832;10.746;2023-08-12T02:45:30;14.80;99.90
8633;DHT22;4354;49.832;10.746;2023-08-12T02:47:56;14.80;99.90
8633;DHT22;4354;49.832;10.746;2023-08-12T02:50:23;14.80;99.90
8633;DHT22;4354;49.832;10.746;2023-08-12T02:52:50;14.80;99.90
8633;DHT22;4354;49.832;10.746;2023-08-12T02:55:17;14.80;99.90
8633;DHT22;4354;49.832;10.746;2023-08-12T02:57:43;14.80;99.90
8633;DHT22;4354;49.832;10.746;2023-08-12T03:00:11;14.80;99.90
8633;DHT22;4354;49.832;10.746;2023-08-12T03:02:42;14.70;99.90
8633;DHT22;4354;49.832;10.746;2023-08-12T03:05:09;14.70;99.90
8633;DHT22;4354;49.832;10.746;2023-08-12T03:07:36;14.70;99.90
8633;DHT22;4354;49.832;10.746;2023-08-12T03:10:04;14.70;99.90
8633;DHT22;4354;49.832;10.746;2023-08-12T03:12:31;14.70;99.90
8633;DHT22;4354;49.832;10.746;2023-08-12T03:15:01;14.70;99.90
8633;DHT22;4354;49.832;10.746;2023-08-12T03:17:28;14.80;99.90
8633;DHT22;4354;49.832;10.746;2023-08-12T03:19:57;14.80;99.90
8633;DHT22;4354;49.832;10.746;2023-08-12T03:22:27;14.90;99.90
8633;DHT22;4354;49.832;10.746;2023-08-12T03:24:54;14.90;99.90
8633;DHT22;4354;49.832;10.746;2023-08-12T03:27:20;14.90;99.90
8633;DHT22;4354;49.832;10.746;2023-08-12T03:29:47;14.90;99.90
8633;DHT22;4354;49.832;10.746;2023-08-12T03:32:14;15.00;99.90
8633;DHT22;4354;49.832;10.746;2023-08-12T03:34:41;15.00;99.90
8633;DHT22;4354;49.832;10.746;2023-08-12T03:37:07;15.10;99.90
8633;DHT22;4354;49.832;10.746;2023-08-12T03:39:35;15.10;99.90
8633;DHT22;4354;49.832;10.746;2023-08-12T03:42:02;15.10;99.90
8633;DHT22;4354;49.832;10.746;2023-08-12T03:44:28;15.00;99.90
8633;DHT22;4354;49.832;10.746;2023-08-12T03:46:55;15.00;99.90
8633;DHT22;4354;49.832;10.746;2023-08-12T03:49:22;15.00;99.90
8633;DHT22;4354;49.832;10.746;2023-08-12T03:51:49;14.90;99.90
8633;DHT22;4354;49.832;10.746;2023-08-12T03:54:15;14.90;99.90
8633;DHT22;4354;49.832;10.746;2023-08-12T03:56:42;14.80;99.90
8633;DHT22;4354;49.832;10.746;2023-08-12T03:59:09;14.70;99.90
8633;DHT22;4354;49.832;10.746;2023-08-12T04:01:37;14.80;99.90
8633;DHT22;4354;49.832;10.746;2023-08-12T04:04:04;14.90;99.90
8633;DHT22;4354;49.832;10.746;2023-08-12T04:06:31;14.80;99.90
8633;DHT22;4354;49.832;10.746;2023-08-12T04:08:57;14.90;99.90
8633;DHT22;4354;49.832;10.746;2023-08-12T04:11:24;14.90;99.90
8633;DHT22;4354;49.832;10.746;2023-08-12T04:13:51;14.90;99.90
8633;DHT22;4354;49.832;10.746;2023-08-12T04:16:17;14.90;99.90
8633;DHT22;4354;49.832;10.746;2023-08-12T04:18:44;15.00;99.90
8633;DHT22;4354;49.832;10.746;2023-08-12T04:21:11;15.00;99.90
8633;DHT22;4354;49.832;10.746;2023-08-12T04:23:39;15.00;99.90
8633;DHT22;4354;49.832;10.746;2023-08-12T04:26:05;15.00;99.90
8633;DHT22;4354;49.832;10.746;2023-08-12T04:28:32;15.10;99.90
8633;DHT22;4354;49.832;10.746;2023-08-12T04:30:59;15.10;99.90
8633;DHT22;4354;49.832;10.746;2023-08-12T04:33:26;15.10;99.90
8633;DHT22;4354;49.832;10.746;2023-08-12T04:35:53;15.10;99.90
8633;DHT22;4354;49.832;10.746;2023-08-12T04:38:20;15.20;99.90
8633;DHT22;4354;49.832;10.746;2023-08-12T04:40:47;15.30;99.90
8633;DHT22;4354;49.832;10.746;2023-08-12T04:43:14;15.40;99.90
8633;DHT22;4354;49.832;10.746;2023-08-12T04:45:45;15.50;99.90
8633;DHT22;4354;49.832;10.746;2023-08-12T04:48:12;15.60;99.90
8633;DHT22;4354;49.832;10.746;2023-08-12T04:50:39;15.70;99.90
8633;DHT22;4354;49.832;10.746;2023-08-12T04:53:06;15.80;99.90
8633;DHT22;4354;49.832;10.746;2023-08-12T04:55:35;15.90;99.90
8633;DHT22;4354;49.832;10.746;2023-08-12T04:58:02;16.00;99.90
8633;DHT22;4354;49.832;10.746;2023-08-12T05:00:29;16.10;99.90
8633;DHT22;4354;49.832;10.746;2023-08-12T05:02:57;16.10;99.90
8633;DHT22;4354;49.832;10.746;2023-08-12T05:05:26;16.20;99.90
8633;DHT22;4354;49.832;10.746;2023-08-12T05:07:54;16.30;99.90
8633;DHT22;4354;49.832;10.746;2023-08-12T05:10:21;16.40;99.90
8633;DHT22;4354;49.832;10.746;2023-08-12T05:12:48;16.50;99.90
8633;DHT22;4354;49.832;10.746;2023-08-12T05:15:16;16.70;99.90
8633;DHT22;4354;49.832;10.746;2023-08-12T05:17:43;16.70;99.90
8633;DHT22;4354;49.832;10.746;2023-08-12T05:20:10;16.80;99.90
8633;DHT22;4354;49.832;10.746;2023-08-12T05:22:37;16.90;99.90
8633;DHT22;4354;49.832;10.746;2023-08-12T05:25:04;17.00;99.90
8633;DHT22;4354;49.832;10.746;2023-08-12T05:27:31;17.00;99.90
8633;DHT22;4354;49.832;10.746;2023-08-12T05:29:58;17.10;99.90
8633;DHT22;4354;49.832;10.746;2023-08-12T05:32:24;17.20;99.90
8633;DHT22;4354;49.832;10.746;2023-08-12T05:34:55;17.30;99.90
8633;DHT22;4354;49.832;10.746;2023-08-12T05:37:21;17.30;99.90
8633;DHT22;4354;49.832;10.746;2023-08-12T05:39:48;17.40;99.90
8633;DHT22;4354;49.832;10.746;2023-08-12T05:42:15;17.40;99.90
8633;DHT22;4354;49.832;10.746;2023-08-12T05:44:42;17.40;99.90
8633;DHT22;4354;49.832;10.746;2023-08-12T05:47:09;17.50;99.90
8633;DHT22;4354;49.832;10.746;2023-08-12T05:49:35;17.50;99.90
8633;DHT22;4354;49.832;10.746;2023-08-12T05:52:02;17.70;99.90
8633;DHT22;4354;49.832;10.746;2023-08-12T05:54:29;17.70;99.90
8633;DHT22;4354;49.832;10.746;2023-08-12T05:56:56;17.80;99.90
8633;DHT22;4354;49.832;10.746;2023-08-12T05:59:23;17.90;99.90
8633;DHT22;4354;49.832;10.746;2023-08-12T06:01:50;18.10;99.40
8633;DHT22;4354;49.832;10.746;2023-08-12T06:04:16;18.20;93.40
8633;DHT22;4354;49.832;10.746;2023-08-12T06:06:43;18.30;92.60
8633;DHT22;4354;49.832;10.746;2023-08-12T06:09:10;18.40;87.60
8633;DHT22;4354;49.832;10.746;2023-08-12T06:11:37;18.50;64.50
8633;DHT22;4354;49.832;10.746;2023-08-12T06:14:03;18.50;48.40
8633;DHT22;4354;49.832;10.746;2023-08-12T06:16:30;18.60;63.30
8633;DHT22;4354;49.832;10.746;2023-08-12T06:18:57;18.70;55.60
8633;DHT22;4354;49.832;10.746;2023-08-12T06:21:24;18.70;62.00
8633;DHT22;4354;49.832;10.746;2023-08-12T06:23:51;18.90;55.00
8633;DHT22;4354;49.832;10.746;2023-08-12T06:26:18;19.00;58.60
8633;DHT22;4354;49.832;10.746;2023-08-12T06:28:44;19.10;48.60
8633;DHT22;4354;49.832;10.746;2023-08-12T06:31:11;19.20;38.30
8633;DHT22;4354;49.832;10.746;2023-08-12T06:33:38;19.30;39.30
8633;DHT22;4354;49.832;10.746;2023-08-12T06:36:05;19.40;34.20
8633;DHT22;4354;49.832;10.746;2023-08-12T06:38:32;19.40;16.20
8633;DHT22;4354;49.832;10.746;2023-08-12T06:40:59;19.50;1.00
8633;DHT22;4354;49.832;10.746;2023-08-12T06:43:26;19.50;1.00
8633;DHT22;4354;49.832;10.746;2023-08-12T06:45:55;19.60;1.00
8633;DHT22;4354;49.832;10.746;2023-08-12T06:48:22;19.60;1.00
8633;DHT22;4354;49.832;10.746;2023-08-12T06:50:54;19.70;1.00
8633;DHT22;4354;49.832;10.746;2023-08-12T06:53:22;19.90;1.00
8633;DHT22;4354;49.832;10.746;2023-08-12T06:55:49;19.90;99.90
8633;DHT22;4354;49.832;10.746;2023-08-12T06:58:15;20.00;1.00
8633;DHT22;4354;49.832;10.746;2023-08-12T07:00:42;20.10;1.00
8633;DHT22;4354;49.832;10.746;2023-08-12T07:03:09;20.30;1.00
8633;DHT22;4354;49.832;10.746;2023-08-12T07:05:36;20.40;99.90
8633;DHT22;4354;49.832;10.746;2023-08-12T07:08:03;20.60;99.90
8633;DHT22;4354;49.832;10.746;2023-08-12T07:10:30;20.80;1.00
8633;DHT22;4354;49.832;10.746;2023-08-12T07:12:57;21.10;6.30
8633;DHT22;4354;49.832;10.746;2023-08-12T07:15:24;21.40;99.90
8633;DHT22;4354;49.832;10.746;2023-08-12T07:17:50;21.70;1.00
8633;DHT22;4354;49.832;10.746;2023-08-12T07:20:17;22.00;99.90
8633;DHT22;4354;49.832;10.746;2023-08-12T07:22:44;22.10;99.90
8633;DHT22;4354;49.832;10.746;2023-08-12T07:25:11;22.20;99.90
8633;DHT22;4354;49.832;10.746;2023-08-12T07:27:37;22.00;99.90
8633;DHT22;4354;49.832;10.746;2023-08-12T07:30:05;21.90;80.20
8633;DHT22;4354;49.832;10.746;2023-08-12T07:32:32;21.80;99.90
8633;DHT22;4354;49.832;10.746;2023-08-12T07:34:59;21.70;38.90
8633;DHT22;4354;49.832;10.746;2023-08-12T07:37:26;21.60;99.90
8633;DHT22;4354;49.832;10.746;2023-08-12T07:39:53;21.50;99.90
8633;DHT22;4354;49.832;10.746;2023-08-12T07:42:20;21.40;99.90
8633;DHT22;4354;49.832;10.746;2023-08-12T07:44:46;21.30;99.90
8633;DHT22;4354;49.832;10.746;2023-08-12T07:47:13;21.30;99.90
8633;DHT22;4354;49.832;10.746;2023-08-12T07:49:42;21.40;99.90
8633;DHT22;4354;49.832;10.746;2023-08-12T07:52:09;21.50;99.90
8633;DHT22;4354;49.832;10.746;2023-08-12T07:54:39;21.60;99.90
8633;DHT22;4354;49.832;10.746;2023-08-12T07:57:06;21.80;99.90
8633;DHT22;4354;49.832;10.746;2023-08-12T07:59:33;22.00;21.70
8633;DHT22;4354;49.832;10.746;2023-08-12T08:02:00;22.10;1.00
8633;DHT22;4354;49.832;10.746;2023-08-12T08:04:27;22.10;1.00
8633;DHT22;4354;49.832;10.746;2023-08-12T08:06:53;22.20;1.00
8633;DHT22;4354;49.832;10.746;2023-08-12T08:09:20;22.20;1.00
8633;DHT22;4354;49.832;10.746;2023-08-12T08:11:47;22.20;1.00
8633;DHT22;4354;49.832;10.746;2023-08-12T08:14:14;22.20;1.00
8633;DHT22;4354;49.832;10.746;2023-08-12T08:16:40;22.10;1.00
8633;DHT22;4354;49.832;10.746;2023-08-12T08:19:08;22.00;1.00
8633;DHT22;4354;49.832;10.746;2023-08-12T08:21:45;22.20;1.00
8633;DHT22;4354;49.832;10.746;2023-08-12T08:24:12;22.50;1.00
8633;DHT22;4354;49.832;10.746;2023-08-12T08:26:39;22.80;1.00
8633;DHT22;4354;49.832;10.746;2023-08-12T08:29:09;23.00;1.00
8633;DHT22;4354;49.832;10.746;2023-08-12T08:31:35;24.00;1.00
8633;DHT22;4354;49.832;10.746;2023-08-12T08:34:02;25.20;99.90
8633;DHT22;4354;49.832;10.746;2023-08-12T08:36:29;25.00;99.90
8633;DHT22;4354;49.832;10.746;2023-08-12T08:38:56;24.50;99.90
8633;DHT22;4354;49.832;10.746;2023-08-12T08:41:24;23.80;99.90
8633;DHT22;4354;49.832;10.746;2023-08-12T08:43:52;23.40;99.90
8633;DHT22;4354;49.832;10.746;2023-08-12T08:46:22;23.20;99.90
8633;DHT22;4354;49.832;10.746;2023-08-12T08:48:51;23.20;1.00
8633;DHT22;4354;49.832;10.746;2023-08-12T08:51:18;23.30;1.00
8633;DHT22;4354;49.832;10.746;2023-08-12T08:53:46;23.80;1.00
8633;DHT22;4354;49.832;10.746;2023-08-12T08:56:14;24.80;99.90
8633;DHT22;4354;49.832;10.746;2023-08-12T08:58:41;25.80;99.90
8633;DHT22;4354;49.832;10.746;2023-08-12T09:01:09;26.80;99.90
8633;DHT22;4354;49.832;10.746;2023-08-12T09:03:38;27.90;99.90
8633;DHT22;4354;49.832;10.746;2023-08-12T09:06:05;29.30;99.90
8633;DHT22;4354;49.832;10.746;2023-08-12T09:08:32;29.20;99.90
8633;DHT22;4354;49.832;10.746;2023-08-12T09:11:00;28.60;99.90
8633;DHT22;4354;49.832;10.746;2023-08-12T09:13:29;27.40;99.90
8633;DHT22;4354;49.832;10.746;2023-08-12T09:15:56;27.00;99.90
8633;DHT22;4354;49.832;10.746;2023-08-12T09:18:23;28.00;99.90
8633;DHT22;4354;49.832;10.746;2023-08-12T09:20:51;29.90;99.90
8633;DHT22;4354;49.832;10.746;2023-08-12T09:23:19;30.50;99.90
8633;DHT22;4354;49.832;10.746;2023-08-12T09:25:46;31.70;99.90
8633;DHT22;4354;49.832;10.746;2023-08-12T09:28:13;32.20;99.90
8633;DHT22;4354;49.832;10.746;2023-08-12T09:30:40;32.60;99.90
8633;DHT22;4354;49.832;10.746;2023-08-12T09:33:08;33.10;99.90
8633;DHT22;4354;49.832;10.746;2023-08-12T09:35:40;32.40;90.00
8633;DHT22;4354;49.832;10.746;2023-08-12T09:38:11;31.80;89.50
8633;DHT22;4354;49.832;10.746;2023-08-12T09:40:39;31.40;85.50
8633;DHT22;4354;49.832;10.746;2023-08-12T09:43:06;31.10;88.70
8633;DHT22;4354;49.832;10.746;2023-08-12T09:45:34;31.10;84.00
8633;DHT22;4354;49.832;10.746;2023-08-12T09:48:01;30.90;82.60
8633;DHT22;4354;49.832;10.746;2023-08-12T09:50:29;30.40;85.20
8633;DHT22;4354;49.832;10.746;2023-08-12T09:52:56;30.50;86.80
8633;DHT22;4354;49.832;10.746;2023-08-12T09:55:24;31.90;81.10
8633;DHT22;4354;49.832;10.746;2023-08-12T09:57:52;31.70;73.10
8633;DHT22;4354;49.832;10.746;2023-08-12T10:00:21;31.20;72.80
8633;DHT22;4354;49.832;10.746;2023-08-12T10:02:50;30.70;74.50
8633;DHT22;4354;49.832;10.746;2023-08-12T10:05:24;31.30;77.40
8633;DHT22;4354;49.832;10.746;2023-08-12T10:07:53;33.50;68.70
8633;DHT22;4354;49.832;10.746;2023-08-12T10:10:21;35.50;63.50
8633;DHT22;4354;49.832;10.746;2023-08-12T10:12:49;36.30;46.10
8633;DHT22;4354;49.832;10.746;2023-08-12T10:15:16;36.10;35.40
8633;DHT22;4354;49.832;10.746;2023-08-12T10:17:43;35.80;30.10
8633;DHT22;4354;49.832;10.746;2023-08-12T10:20:17;34.70;32.90
8633;DHT22;4354;49.832;10.746;2023-08-12T10:22:46;36.10;32.30
8633;DHT22;4354;49.832;10.746;2023-08-12T10:25:14;37.80;24.10
8633;DHT22;4354;49.832;10.746;2023-08-12T10:27:41;39.40;13.90
8633;DHT22;4354;49.832;10.746;2023-08-12T10:30:09;39.10;2.90
8633;DHT22;4354;49.832;10.746;2023-08-12T10:32:36;37.70;7.80
8633;DHT22;4354;49.832;10.746;2023-08-12T10:35:03;37.10;1.00
8633;DHT22;4354;49.832;10.746;2023-08-12T10:37:32;38.50;18.50
8633;DHT22;4354;49.832;10.746;2023-08-12T10:40:05;39.70;1.00
8633;DHT22;4354;49.832;10.746;2023-08-12T10:42:46;39.80;1.00
8633;DHT22;4354;49.832;10.746;2023-08-12T10:45:15;39.60;1.00
8633;DHT22;4354;49.832;10.746;2023-08-12T10:47:47;38.70;1.00
8633;DHT22;4354;49.832;10.746;2023-08-12T10:50:22;40.30;1.00
8633;DHT22;4354;49.832;10.746;2023-08-12T10:52:53;41.40;1.00
8633;DHT22;4354;49.832;10.746;2023-08-12T10:55:21;42.20;1.00
8633;DHT22;4354;49.832;10.746;2023-08-12T10:57:52;41.90;1.00
8633;DHT22;4354;49.832;10.746;2023-08-12T11:00:27;41.50;1.00
8633;DHT22;4354;49.832;10.746;2023-08-12T11:02:56;40.60;1.00
8633;DHT22;4354;49.832;10.746;2023-08-12T11:05:24;40.30;1.00
8633;DHT22;4354;49.832;10.746;2023-08-12T11:07:59;40.30;1.00
8633;DHT22;4354;49.832;10.746;2023-08-12T11:10:30;40.50;1.00
8633;DHT22;4354;49.832;10.746;2023-08-12T11:13:01;40.50;1.00
8633;DHT22;4354;49.832;10.746;2023-08-12T11:18:23;39.60;1.00
8633;DHT22;4354;49.832;10.746;2023-08-12T11:20:50;40.00;1.00
8633;DHT22;4354;49.832;10.746;2023-08-12T11:23:18;40.40;1.00
8633;DHT22;4354;49.832;10.746;2023-08-12T11:25:47;39.90;1.00
8633;DHT22;4354;49.832;10.746;2023-08-12T11:28:18;39.90;1.00
8633;DHT22;4354;49.832;10.746;2023-08-12T11:30:46;39.90;1.00
8633;DHT22;4354;49.832;10.746;2023-08-12T11:33:16;39.80;1.00
8633;DHT22;4354;49.832;10.746;2023-08-12T11:35:45;38.80;1.00
8633;DHT22;4354;49.832;10.746;2023-08-12T11:38:12;37.30;1.00
8633;DHT22;4354;49.832;10.746;2023-08-12T11:40:40;36.20;1.00
8633;DHT22;4354;49.832;10.746;2023-08-12T11:43:06;36.50;1.00
8633;DHT22;4354;49.832;10.746;2023-08-12T11:45:33;36.90;1.00
8633;DHT22;4354;49.832;10.746;2023-08-12T11:48:00;37.10;1.00
8633;DHT22;4354;49.832;10.746;2023-08-12T11:50:27;37.40;1.00
8633;DHT22;4354;49.832;10.746;2023-08-12T11:52:56;37.30;1.00
8633;DHT22;4354;49.832;10.746;2023-08-12T11:55:23;37.30;1.00
8633;DHT22;4354;49.832;10.746;2023-08-12T11:57:51;37.00;1.00
8633;DHT22;4354;49.832;10.746;2023-08-12T12:00:19;37.10;1.00
8633;DHT22;4354;49.832;10.746;2023-08-12T12:02:49;37.30;1.00
8633;DHT22;4354;49.832;10.746;2023-08-12T12:05:25;37.30;1.00
8633;DHT22;4354;49.832;10.746;2023-08-12T12:07:52;36.70;1.00
8633;DHT22;4354;49.832;10.746;2023-08-12T12:10:30;37.00;1.00
8633;DHT22;4354;49.832;10.746;2023-08-12T12:13:01;36.20;1.00
8633;DHT22;4354;49.832;10.746;2023-08-12T12:15:29;36.30;1.00
8633;DHT22;4354;49.832;10.746;2023-08-12T12:17:56;36.50;1.00
8633;DHT22;4354;49.832;10.746;2023-08-12T12:20:23;35.80;1.00
8633;DHT22;4354;49.832;10.746;2023-08-12T12:22:50;35.50;1.00
8633;DHT22;4354;49.832;10.746;2023-08-12T12:25:17;35.80;1.00
8633;DHT22;4354;49.832;10.746;2023-08-12T12:27:47;35.60;1.00
8633;DHT22;4354;49.832;10.746;2023-08-12T12:30:15;35.40;1.00
8633;DHT22;4354;49.832;10.746;2023-08-12T12:32:43;35.20;1.00
8633;DHT22;4354;49.832;10.746;2023-08-12T12:35:10;35.00;1.00
8633;DHT22;4354;49.832;10.746;2023-08-12T12:37:37;34.40;1.00
8633;DHT22;4354;49.832;10.746;2023-08-12T12:40:05;33.70;1.00
8633;DHT22;4354;49.832;10.746;2023-08-12T12:42:32;33.20;1.00
8633;DHT22;4354;49.832;10.746;2023-08-12T12:44:59;32.90;1.00
8633;DHT22;4354;49.832;10.746;2023-08-12T12:47:26;33.10;1.00
8633;DHT22;4354;49.832;10.746;2023-08-12T12:49:53;33.00;1.00
8633;DHT22;4354;49.832;10.746;2023-08-12T12:52:28;32.80;1.00
8633;DHT22;4354;49.832;10.746;2023-08-12T12:54:55;32.40;1.00
8633;DHT22;4354;49.832;10.746;2023-08-12T12:57:25;32.20;1.00
8633;DHT22;4354;49.832;10.746;2023-08-12T12:59:52;31.90;1.00
8633;DHT22;4354;49.832;10.746;2023-08-12T13:02:19;31.70;1.00
8633;DHT22;4354;49.832;10.746;2023-08-12T13:04:46;31.30;1.00
8633;DHT22;4354;49.832;10.746;2023-08-12T13:07:13;31.00;1.00
8633;DHT22;4354;49.832;10.746;2023-08-12T13:09:40;30.90;1.00
8633;DHT22;4354;49.832;10.746;2023-08-12T13:12:07;30.80;1.00
8633;DHT22;4354;49.832;10.746;2023-08-12T13:14:34;30.70;1.00
8633;DHT22;4354;49.832;10.746;2023-08-12T13:17:01;30.60;1.00
8633;DHT22;4354;49.832;10.746;2023-08-12T13:19:28;30.70;1.00
8633;DHT22;4354;49.832;10.746;2023-08-12T13:21:55;30.70;1.00
8633;DHT22;4354;49.832;10.746;2023-08-12T13:24:22;30.60;1.00
8633;DHT22;4354;49.832;10.746;2023-08-12T13:26:48;30.40;1.00
8633;DHT22;4354;49.832;10.746;2023-08-12T13:29:15;28.60;1.00
8633;DHT22;4354;49.832;10.746;2023-08-12T13:31:42;27.30;1.00
8633;DHT22;4354;49.832;10.746;2023-08-12T13:34:09;25.90;1.00
8633;DHT22;4354;49.832;10.746;2023-08-12T13:36:35;25.00;1.00
8633;DHT22;4354;49.832;10.746;2023-08-12T13:39:03;24.30;1.00
8633;DHT22;4354;49.832;10.746;2023-08-12T13:41:30;23.80;67.40
8633;DHT22;4354;49.832;10.746;2023-08-12T13:43:56;23.30;1.00
8633;DHT22;4354;49.832;10.746;2023-08-12T13:46:23;22.70;1.00
8633;DHT22;4354;49.832;10.746;2023-08-12T13:48:50;21.90;99.90
8633;DHT22;4354;49.832;10.746;2023-08-12T13:51:17;21.40;1.00
8633;DHT22;4354;49.832;10.746;2023-08-12T13:53:43;21.00;1.00
8633;DHT22;4354;49.832;10.746;2023-08-12T13:56:10;20.90;1.00
8633;DHT22;4354;49.832;10.746;2023-08-12T13:58:38;20.80;1.00
8633;DHT22;4354;49.832;10.746;2023-08-12T14:01:04;20.80;11.60
8633;DHT22;4354;49.832;10.746;2023-08-12T14:03:32;20.90;19.30
8633;DHT22;4354;49.832;10.746;2023-08-12T14:05:59;21.20;16.00
8633;DHT22;4354;49.832;10.746;2023-08-12T14:08:26;21.40;9.00
8633;DHT22;4354;49.832;10.746;2023-08-12T14:10:53;21.70;1.00
8633;DHT22;4354;49.832;10.746;2023-08-12T14:13:20;21.90;1.00
8633;DHT22;4354;49.832;10.746;2023-08-12T14:15:47;22.00;1.00
8633;DHT22;4354;49.832;10.746;2023-08-12T14:18:15;22.10;1.00
8633;DHT22;4354;49.832;10.746;2023-08-12T14:20:41;22.20;1.00
8633;DHT22;4354;49.832;10.746;2023-08-12T14:23:08;22.40;1.00
8633;DHT22;4354;49.832;10.746;2023-08-12T14:25:35;22.40;1.00
8633;DHT22;4354;49.832;10.746;2023-08-12T14:28:02;22.50;1.00
8633;DHT22;4354;49.832;10.746;2023-08-12T14:30:29;22.80;1.00
8633;DHT22;4354;49.832;10.746;2023-08-12T14:32:56;23.00;1.00
8633;DHT22;4354;49.832;10.746;2023-08-12T14:35:24;23.10;1.00
8633;DHT22;4354;49.832;10.746;2023-08-12T14:37:51;23.30;1.00
8633;DHT22;4354;49.832;10.746;2023-08-12T14:40:17;23.40;1.00
8633;DHT22;4354;49.832;10.746;2023-08-12T14:42:44;23.50;1.00
8633;DHT22;4354;49.832;10.746;2023-08-12T14:45:11;23.70;1.00
8633;DHT22;4354;49.832;10.746;2023-08-12T14:47:38;23.70;58.50
8633;DHT22;4354;49.832;10.746;2023-08-12T14:50:05;23.50;1.00
8633;DHT22;4354;49.832;10.746;2023-08-12T14:52:32;23.40;1.00
8633;DHT22;4354;49.832;10.746;2023-08-12T14:54:58;23.20;99.90
8633;DHT22;4354;49.832;10.746;2023-08-12T14:57:25;23.10;1.00
8633;DHT22;4354;49.832;10.746;2023-08-12T14:59:52;22.90;1.00
8633;DHT22;4354;49.832;10.746;2023-08-12T15:02:21;22.90;99.90
8633;DHT22;4354;49.832;10.746;2023-08-12T15:04:49;22.80;1.00
8633;DHT22;4354;49.832;10.746;2023-08-12T15:07:16;22.80;1.00
8633;DHT22;4354;49.832;10.746;2023-08-12T15:09:45;22.70;1.00
8633;DHT22;4354;49.832;10.746;2023-08-12T15:12:12;22.40;1.00
8633;DHT22;4354;49.832;10.746;2023-08-12T15:14:39;22.30;1.00
8633;DHT22;4354;49.832;10.746;2023-08-12T15:17:19;22.10;1.00
8633;DHT22;4354;49.832;10.746;2023-08-12T15:19:45;22.10;1.00
8633;DHT22;4354;49.832;10.746;2023-08-12T15:22:12;22.10;1.00
8633;DHT22;4354;49.832;10.746;2023-08-12T15:24:39;22.00;1.00
8633;DHT22;4354;49.832;10.746;2023-08-12T15:27:06;22.00;1.00
8633;DHT22;4354;49.832;10.746;2023-08-12T15:29:33;22.00;1.00
8633;DHT22;4354;49.832;10.746;2023-08-12T15:31:59;22.00;1.00
8633;DHT22;4354;49.832;10.746;2023-08-12T15:34:27;22.00;1.00
8633;DHT22;4354;49.832;10.746;2023-08-12T15:36:54;22.10;1.00
8633;DHT22;4354;49.832;10.746;2023-08-12T15:39:21;22.20;1.00
8633;DHT22;4354;49.832;10.746;2023-08-12T15:41:48;22.30;1.00
8633;DHT22;4354;49.832;10.746;2023-08-12T15:44:15;22.30;1.00
8633;DHT22;4354;49.832;10.746;2023-08-12T15:46:42;22.30;1.00
8633;DHT22;4354;49.832;10.746;2023-08-12T15:49:09;22.30;1.00
8633;DHT22;4354;49.832;10.746;2023-08-12T15:51:38;22.30;1.00
8633;DHT22;4354;49.832;10.746;2023-08-12T15:54:08;22.40;1.00
8633;DHT22;4354;49.832;10.746;2023-08-12T15:56:36;22.40;1.00
8633;DHT22;4354;49.832;10.746;2023-08-12T15:59:04;22.40;1.00